sensor_id;sensor_type;location;lat;lon;timestamp;P1;durP1;ratioP1;P2;durP2;ratioP2
45420;SDS011;55462;47.042;8.292;2022-10-29T00:02:25;12.30;;;4.10;;
45420;SDS011;55462;47.042;8.292;2022-10-29T00:04:50;7.32;;;3.80;;
45420;SDS011;55462;47.042;8.292;2022-10-29T00:07:15;10.40;;;3.72;;
45420;SDS011;55462;47.042;8.292;2022-10-29T00:09:41;8.00;;;3.72;;
45420;SDS011;55462;47.042;8.292;2022-10-29T00:12:06;14.27;;;3.83;;
45420;SDS011;55462;47.042;8.292;2022-10-29T00:14:32;8.77;;;3.60;;
45420;SDS011;55462;47.042;8.292;2022-10-29T00:16:57;15.57;;;3.60;;
45420;SDS011;55462;47.042;8.292;2022-10-29T00:19:22;7.43;;;3.70;;
45420;SDS011;55462;47.042;8.292;2022-10-29T00:21:51;12.95;;;4.03;;
45420;SDS011;55462;47.042;8.292;2022-10-29T00:24:16;7.97;;;3.45;;
45420;SDS011;55462;47.042;8.292;2022-10-29T00:26:41;10.77;;;4.43;;
45420;SDS011;55462;47.042;8.292;2022-10-29T00:29:07;8.98;;;3.10;;
45420;SDS011;55462;47.042;8.292;2022-10-29T00:31:32;8.93;;;3.88;;
45420;SDS011;55462;47.042;8.292;2022-10-29T00:33:59;10.48;;;4.50;;
45420;SDS011;55462;47.042;8.292;2022-10-29T00:36:26;10.57;;;4.13;;
45420;SDS011;55462;47.042;8.292;2022-10-29T00:38:52;10.63;;;3.67;;
45420;SDS011;55462;47.042;8.292;2022-10-29T00:41:19;15.23;;;4.20;;
45420;SDS011;55462;47.042;8.292;2022-10-29T00:43:50;6.32;;;3.63;;
45420;SDS011;55462;47.042;8.292;2022-10-29T00:46:34;8.77;;;4.28;;
45420;SDS011;55462;47.042;8.292;2022-10-29T00:49:00;9.10;;;4.03;;
45420;SDS011;55462;47.042;8.292;2022-10-29T00:51:26;13.27;;;4.75;;
45420;SDS011;55462;47.042;8.292;2022-10-29T00:53:55;9.70;;;3.83;;
45420;SDS011;55462;47.042;8.292;2022-10-29T00:56:24;6.63;;;3.90;;
45420;SDS011;55462;47.042;8.292;2022-10-29T00:58:49;8.63;;;3.80;;
45420;SDS011;55462;47.042;8.292;2022-10-29T01:01:15;6.25;;;3.50;;
45420;SDS011;55462;47.042;8.292;2022-10-29T01:03:40;6.55;;;3.63;;
45420;SDS011;55462;47.042;8.292;2022-10-29T01:06:06;12.95;;;3.97;;
45420;SDS011;55462;47.042;8.292;2022-10-29T01:08:32;8.23;;;3.80;;
45420;SDS011;55462;47.042;8.292;2022-10-29T01:14:29;11.57;;;4.22;;
45420;SDS011;55462;47.042;8.292;2022-10-29T01:17:15;9.63;;;4.38;;
45420;SDS011;55462;47.042;8.292;2022-10-29T01:25:25;9.95;;;3.65;;
45420;SDS011;55462;47.042;8.292;2022-10-29T01:33:29;7.05;;;3.58;;
45420;SDS011;55462;47.042;8.292;2022-10-29T01:41:30;8.65;;;4.32;;
45420;SDS011;55462;47.042;8.292;2022-10-29T01:44:27;7.82;;;4.07;;
45420;SDS011;55462;47.042;8.292;2022-10-29T01:46:54;7.65;;;3.78;;
45420;SDS011;55462;47.042;8.292;2022-10-29T01:49:23;11.02;;;3.90;;
45420;SDS011;55462;47.042;8.292;2022-10-29T01:51:52;11.73;;;4.25;;
45420;SDS011;55462;47.042;8.292;2022-10-29T01:54:18;7.88;;;4.30;;
45420;SDS011;55462;47.042;8.292;2022-10-29T01:56:51;10.60;;;4.53;;
45420;SDS011;55462;47.042;8.292;2022-10-29T01:59:24;12.77;;;4.07;;
45420;SDS011;55462;47.042;8.292;2022-10-29T02:02:05;9.93;;;3.78;;
45420;SDS011;55462;47.042;8.292;2022-10-29T02:04:40;8.38;;;3.80;;
45420;SDS011;55462;47.042;8.292;2022-10-29T02:12:52;9.85;;;4.07;;
45420;SDS011;55462;47.042;8.292;2022-10-29T02:15:36;16.38;;;3.90;;
45420;SDS011;55462;47.042;8.292;2022-10-29T02:18:06;9.70;;;3.40;;
45420;SDS011;55462;47.042;8.292;2022-10-29T02:20:32;9.50;;;3.78;;
45420;SDS011;55462;47.042;8.292;2022-10-29T02:22:57;9.05;;;4.00;;
45420;SDS011;55462;47.042;8.292;2022-10-29T02:25:23;8.75;;;3.92;;
45420;SDS011;55462;47.042;8.292;2022-10-29T02:27:48;14.75;;;4.00;;
45420;SDS011;55462;47.042;8.292;2022-10-29T02:30:14;10.07;;;4.38;;
45420;SDS011;55462;47.042;8.292;2022-10-29T02:32:40;9.95;;;4.32;;
45420;SDS011;55462;47.042;8.292;2022-10-29T02:35:05;9.52;;;3.97;;
45420;SDS011;55462;47.042;8.292;2022-10-29T02:37:31;9.15;;;3.95;;
45420;SDS011;55462;47.042;8.292;2022-10-29T02:39:56;12.38;;;3.58;;
45420;SDS011;55462;47.042;8.292;2022-10-29T02:42:21;13.27;;;5.28;;
45420;SDS011;55462;47.042;8.292;2022-10-29T02:44:47;9.27;;;4.00;;
45420;SDS011;55462;47.042;8.292;2022-10-29T02:47:12;10.38;;;4.70;;
45420;SDS011;55462;47.042;8.292;2022-10-29T02:49:37;10.10;;;4.00;;
45420;SDS011;55462;47.042;8.292;2022-10-29T02:52:03;12.05;;;4.50;;
45420;SDS011;55462;47.042;8.292;2022-10-29T02:54:28;9.40;;;4.32;;
45420;SDS011;55462;47.042;8.292;2022-10-29T02:56:54;8.65;;;4.25;;
45420;SDS011;55462;47.042;8.292;2022-10-29T02:59:19;10.38;;;4.80;;
45420;SDS011;55462;47.042;8.292;2022-10-29T03:01:44;9.90;;;4.57;;
45420;SDS011;55462;47.042;8.292;2022-10-29T03:04:10;7.47;;;4.20;;
45420;SDS011;55462;47.042;8.292;2022-10-29T03:06:35;11.90;;;4.50;;
45420;SDS011;55462;47.042;8.292;2022-10-29T03:09:01;6.65;;;3.75;;
45420;SDS011;55462;47.042;8.292;2022-10-29T03:11:27;11.07;;;4.40;;
45420;SDS011;55462;47.042;8.292;2022-10-29T03:13:52;7.95;;;4.00;;
45420;SDS011;55462;47.042;8.292;2022-10-29T03:16:18;14.82;;;4.60;;
45420;SDS011;55462;47.042;8.292;2022-10-29T03:18:43;12.68;;;4.18;;
45420;SDS011;55462;47.042;8.292;2022-10-29T03:21:08;8.55;;;4.30;;
45420;SDS011;55462;47.042;8.292;2022-10-29T03:23:33;10.68;;;4.22;;
45420;SDS011;55462;47.042;8.292;2022-10-29T03:25:59;6.60;;;3.63;;
45420;SDS011;55462;47.042;8.292;2022-10-29T03:28:24;9.02;;;4.68;;
45420;SDS011;55462;47.042;8.292;2022-10-29T03:30:51;9.77;;;3.85;;
45420;SDS011;55462;47.042;8.292;2022-10-29T03:33:17;10.70;;;4.75;;
45420;SDS011;55462;47.042;8.292;2022-10-29T03:35:42;9.13;;;4.47;;
45420;SDS011;55462;47.042;8.292;2022-10-29T03:38:07;9.75;;;3.65;;
45420;SDS011;55462;47.042;8.292;2022-10-29T03:40:32;7.45;;;4.28;;
45420;SDS011;55462;47.042;8.292;2022-10-29T03:42:58;11.40;;;4.50;;
45420;SDS011;55462;47.042;8.292;2022-10-29T03:45:23;10.02;;;3.70;;
45420;SDS011;55462;47.042;8.292;2022-10-29T03:47:48;10.13;;;4.28;;
45420;SDS011;55462;47.042;8.292;2022-10-29T03:50:14;10.20;;;4.45;;
45420;SDS011;55462;47.042;8.292;2022-10-29T03:52:39;6.90;;;3.80;;
45420;SDS011;55462;47.042;8.292;2022-10-29T03:55:05;5.05;;;3.70;;
45420;SDS011;55462;47.042;8.292;2022-10-29T03:57:31;11.73;;;4.60;;
45420;SDS011;55462;47.042;8.292;2022-10-29T03:59:56;13.07;;;4.55;;
45420;SDS011;55462;47.042;8.292;2022-10-29T04:02:21;14.55;;;4.78;;
45420;SDS011;55462;47.042;8.292;2022-10-29T04:04:47;9.80;;;4.20;;
45420;SDS011;55462;47.042;8.292;2022-10-29T04:07:12;10.07;;;4.00;;
45420;SDS011;55462;47.042;8.292;2022-10-29T04:09:38;14.13;;;4.18;;
45420;SDS011;55462;47.042;8.292;2022-10-29T04:12:03;10.23;;;5.18;;
45420;SDS011;55462;47.042;8.292;2022-10-29T04:14:29;9.07;;;4.50;;
45420;SDS011;55462;47.042;8.292;2022-10-29T04:16:54;12.27;;;3.85;;
45420;SDS011;55462;47.042;8.292;2022-10-29T04:19:19;8.15;;;4.00;;
45420;SDS011;55462;47.042;8.292;2022-10-29T04:21:45;7.72;;;3.88;;
45420;SDS011;55462;47.042;8.292;2022-10-29T04:24:10;9.13;;;4.20;;
45420;SDS011;55462;47.042;8.292;2022-10-29T04:26:35;8.18;;;4.53;;
45420;SDS011;55462;47.042;8.292;2022-10-29T04:29:01;11.80;;;4.38;;
45420;SDS011;55462;47.042;8.292;2022-10-29T04:31:26;12.40;;;5.10;;
45420;SDS011;55462;47.042;8.292;2022-10-29T04:33:52;12.25;;;4.10;;
45420;SDS011;55462;47.042;8.292;2022-10-29T04:36:17;13.55;;;4.57;;
45420;SDS011;55462;47.042;8.292;2022-10-29T04:38:43;7.07;;;3.88;;
45420;SDS011;55462;47.042;8.292;2022-10-29T04:41:08;9.38;;;4.22;;
45420;SDS011;55462;47.042;8.292;2022-10-29T04:43:33;8.88;;;3.97;;
45420;SDS011;55462;47.042;8.292;2022-10-29T04:45:59;10.10;;;4.53;;
45420;SDS011;55462;47.042;8.292;2022-10-29T04:48:25;11.10;;;3.90;;
45420;SDS011;55462;47.042;8.292;2022-10-29T04:50:51;11.77;;;4.25;;
45420;SDS011;55462;47.042;8.292;2022-10-29T04:53:16;10.35;;;3.47;;
45420;SDS011;55462;47.042;8.292;2022-10-29T04:55:42;13.70;;;4.65;;
45420;SDS011;55462;47.042;8.292;2022-10-29T04:58:10;6.78;;;3.20;;
45420;SDS011;55462;47.042;8.292;2022-10-29T05:00:37;10.88;;;3.95;;
45420;SDS011;55462;47.042;8.292;2022-10-29T05:03:02;11.15;;;3.88;;
45420;SDS011;55462;47.042;8.292;2022-10-29T05:05:28;10.77;;;4.07;;
45420;SDS011;55462;47.042;8.292;2022-10-29T05:07:57;8.25;;;3.85;;
45420;SDS011;55462;47.042;8.292;2022-10-29T05:10:26;11.10;;;4.35;;
45420;SDS011;55462;47.042;8.292;2022-10-29T05:12:59;11.60;;;4.32;;
45420;SDS011;55462;47.042;8.292;2022-10-29T05:15:26;7.85;;;3.78;;
45420;SDS011;55462;47.042;8.292;2022-10-29T05:17:52;8.68;;;4.72;;
45420;SDS011;55462;47.042;8.292;2022-10-29T05:20:17;10.82;;;4.20;;
45420;SDS011;55462;47.042;8.292;2022-10-29T05:22:43;12.13;;;3.97;;
45420;SDS011;55462;47.042;8.292;2022-10-29T05:25:08;17.42;;;4.25;;
45420;SDS011;55462;47.042;8.292;2022-10-29T05:27:33;14.88;;;4.20;;
45420;SDS011;55462;47.042;8.292;2022-10-29T05:29:59;11.40;;;4.78;;
45420;SDS011;55462;47.042;8.292;2022-10-29T05:32:26;8.75;;;3.60;;
45420;SDS011;55462;47.042;8.292;2022-10-29T05:34:52;9.80;;;3.78;;
45420;SDS011;55462;47.042;8.292;2022-10-29T05:37:17;10.95;;;3.67;;
45420;SDS011;55462;47.042;8.292;2022-10-29T05:39:42;12.05;;;4.28;;
45420;SDS011;55462;47.042;8.292;2022-10-29T05:42:08;13.45;;;4.10;;
45420;SDS011;55462;47.042;8.292;2022-10-29T05:44:33;8.35;;;4.13;;
45420;SDS011;55462;47.042;8.292;2022-10-29T05:46:58;11.50;;;4.53;;
45420;SDS011;55462;47.042;8.292;2022-10-29T05:49:24;12.18;;;4.50;;
45420;SDS011;55462;47.042;8.292;2022-10-29T05:51:49;12.75;;;4.38;;
45420;SDS011;55462;47.042;8.292;2022-10-29T05:54:14;10.80;;;3.92;;
45420;SDS011;55462;47.042;8.292;2022-10-29T05:56:40;13.40;;;4.55;;
45420;SDS011;55462;47.042;8.292;2022-10-29T05:59:05;20.67;;;4.43;;
45420;SDS011;55462;47.042;8.292;2022-10-29T06:01:30;9.38;;;3.47;;
45420;SDS011;55462;47.042;8.292;2022-10-29T06:03:56;6.63;;;3.90;;
45420;SDS011;55462;47.042;8.292;2022-10-29T06:06:21;11.40;;;3.58;;
45420;SDS011;55462;47.042;8.292;2022-10-29T06:08:47;9.75;;;3.78;;
45420;SDS011;55462;47.042;8.292;2022-10-29T06:11:12;6.60;;;3.45;;
45420;SDS011;55462;47.042;8.292;2022-10-29T06:13:37;7.50;;;3.20;;
45420;SDS011;55462;47.042;8.292;2022-10-29T06:16:03;11.90;;;3.85;;
45420;SDS011;55462;47.042;8.292;2022-10-29T06:18:28;9.50;;;4.05;;
45420;SDS011;55462;47.042;8.292;2022-10-29T06:20:56;10.38;;;3.90;;
45420;SDS011;55462;47.042;8.292;2022-10-29T06:23:22;8.43;;;3.78;;
45420;SDS011;55462;47.042;8.292;2022-10-29T06:25:47;9.43;;;3.95;;
45420;SDS011;55462;47.042;8.292;2022-10-29T06:28:12;12.15;;;4.03;;
45420;SDS011;55462;47.042;8.292;2022-10-29T06:30:46;14.88;;;4.82;;
45420;SDS011;55462;47.042;8.292;2022-10-29T06:33:13;8.27;;;4.25;;
45420;SDS011;55462;47.042;8.292;2022-10-29T06:35:38;11.63;;;3.88;;
45420;SDS011;55462;47.042;8.292;2022-10-29T06:38:03;8.00;;;4.22;;
45420;SDS011;55462;47.042;8.292;2022-10-29T06:40:29;7.72;;;3.97;;
45420;SDS011;55462;47.042;8.292;2022-10-29T06:42:58;15.82;;;4.70;;
45420;SDS011;55462;47.042;8.292;2022-10-29T06:45:27;15.68;;;4.53;;
45420;SDS011;55462;47.042;8.292;2022-10-29T06:47:53;9.98;;;4.53;;
45420;SDS011;55462;47.042;8.292;2022-10-29T06:50:19;9.57;;;3.60;;
45420;SDS011;55462;47.042;8.292;2022-10-29T06:52:52;9.15;;;3.95;;
45420;SDS011;55462;47.042;8.292;2022-10-29T06:55:18;6.35;;;3.33;;
45420;SDS011;55462;47.042;8.292;2022-10-29T06:57:43;8.32;;;3.95;;
45420;SDS011;55462;47.042;8.292;2022-10-29T07:00:09;9.70;;;3.78;;
45420;SDS011;55462;47.042;8.292;2022-10-29T07:02:34;7.55;;;3.78;;
45420;SDS011;55462;47.042;8.292;2022-10-29T07:05:00;11.38;;;3.95;;
45420;SDS011;55462;47.042;8.292;2022-10-29T07:07:26;8.55;;;3.30;;
45420;SDS011;55462;47.042;8.292;2022-10-29T07:09:52;8.45;;;3.60;;
45420;SDS011;55462;47.042;8.292;2022-10-29T07:12:17;10.15;;;3.17;;
45420;SDS011;55462;47.042;8.292;2022-10-29T07:14:43;9.25;;;3.20;;
45420;SDS011;55462;47.042;8.292;2022-10-29T07:17:08;5.65;;;3.33;;
45420;SDS011;55462;47.042;8.292;2022-10-29T07:19:33;8.63;;;3.40;;
45420;SDS011;55462;47.042;8.292;2022-10-29T07:21:58;8.57;;;4.25;;
45420;SDS011;55462;47.042;8.292;2022-10-29T07:24:24;12.98;;;4.82;;
45420;SDS011;55462;47.042;8.292;2022-10-29T07:26:49;9.75;;;4.38;;
45420;SDS011;55462;47.042;8.292;2022-10-29T07:29:14;9.10;;;3.85;;
45420;SDS011;55462;47.042;8.292;2022-10-29T07:31:40;11.55;;;3.97;;
45420;SDS011;55462;47.042;8.292;2022-10-29T07:34:05;14.02;;;4.65;;
45420;SDS011;55462;47.042;8.292;2022-10-29T07:36:30;11.07;;;4.45;;
45420;SDS011;55462;47.042;8.292;2022-10-29T07:38:56;9.02;;;3.45;;
45420;SDS011;55462;47.042;8.292;2022-10-29T07:41:21;11.52;;;3.22;;
45420;SDS011;55462;47.042;8.292;2022-10-29T07:43:46;11.95;;;4.00;;
45420;SDS011;55462;47.042;8.292;2022-10-29T07:46:12;11.02;;;4.25;;
45420;SDS011;55462;47.042;8.292;2022-10-29T07:48:37;16.27;;;4.85;;
45420;SDS011;55462;47.042;8.292;2022-10-29T07:51:03;11.13;;;4.13;;
45420;SDS011;55462;47.042;8.292;2022-10-29T07:53:28;12.10;;;4.35;;
45420;SDS011;55462;47.042;8.292;2022-10-29T07:55:56;11.95;;;4.22;;
45420;SDS011;55462;47.042;8.292;2022-10-29T07:58:22;9.82;;;4.40;;
45420;SDS011;55462;47.042;8.292;2022-10-29T08:00:48;10.13;;;4.53;;
45420;SDS011;55462;47.042;8.292;2022-10-29T08:03:13;10.93;;;4.53;;
45420;SDS011;55462;47.042;8.292;2022-10-29T08:05:38;9.00;;;4.13;;
45420;SDS011;55462;47.042;8.292;2022-10-29T08:08:05;12.82;;;4.70;;
45420;SDS011;55462;47.042;8.292;2022-10-29T08:10:31;12.60;;;4.40;;
45420;SDS011;55462;47.042;8.292;2022-10-29T08:12:57;10.23;;;4.85;;
45420;SDS011;55462;47.042;8.292;2022-10-29T08:15:24;14.25;;;4.80;;
45420;SDS011;55462;47.042;8.292;2022-10-29T08:17:51;10.25;;;4.63;;
45420;SDS011;55462;47.042;8.292;2022-10-29T08:20:17;9.07;;;4.60;;
45420;SDS011;55462;47.042;8.292;2022-10-29T08:22:43;11.48;;;4.85;;
45420;SDS011;55462;47.042;8.292;2022-10-29T08:25:08;8.43;;;4.53;;
45420;SDS011;55462;47.042;8.292;2022-10-29T08:27:34;14.07;;;4.50;;
45420;SDS011;55462;47.042;8.292;2022-10-29T08:29:59;10.23;;;4.47;;
45420;SDS011;55462;47.042;8.292;2022-10-29T08:32:24;11.57;;;4.75;;
45420;SDS011;55462;47.042;8.292;2022-10-29T08:34:50;14.90;;;5.40;;
45420;SDS011;55462;47.042;8.292;2022-10-29T08:37:15;10.73;;;4.22;;
45420;SDS011;55462;47.042;8.292;2022-10-29T08:39:40;10.07;;;4.53;;
45420;SDS011;55462;47.042;8.292;2022-10-29T08:42:20;12.15;;;4.28;;
45420;SDS011;55462;47.042;8.292;2022-10-29T08:47:36;10.30;;;4.90;;
45420;SDS011;55462;47.042;8.292;2022-10-29T08:50:35;14.00;;;5.32;;
45420;SDS011;55462;47.042;8.292;2022-10-29T08:53:05;8.68;;;4.82;;
45420;SDS011;55462;47.042;8.292;2022-10-29T08:55:38;17.02;;;5.20;;
45420;SDS011;55462;47.042;8.292;2022-10-29T08:58:09;14.77;;;4.35;;
45420;SDS011;55462;47.042;8.292;2022-10-29T09:00:57;12.95;;;3.63;;
45420;SDS011;55462;47.042;8.292;2022-10-29T09:03:23;12.32;;;3.38;;
45420;SDS011;55462;47.042;8.292;2022-10-29T09:05:59;15.63;;;4.90;;
45420;SDS011;55462;47.042;8.292;2022-10-29T09:08:50;18.92;;;4.53;;
45420;SDS011;55462;47.042;8.292;2022-10-29T09:11:43;13.25;;;4.60;;
45420;SDS011;55462;47.042;8.292;2022-10-29T09:20:22;11.18;;;4.65;;
45420;SDS011;55462;47.042;8.292;2022-10-29T09:23:01;11.73;;;4.97;;
45420;SDS011;55462;47.042;8.292;2022-10-29T09:25:33;14.23;;;4.97;;
45420;SDS011;55462;47.042;8.292;2022-10-29T09:28:24;10.40;;;4.57;;
45420;SDS011;55462;47.042;8.292;2022-10-29T09:33:42;20.27;;;5.45;;
45420;SDS011;55462;47.042;8.292;2022-10-29T09:36:16;12.52;;;4.75;;
45420;SDS011;55462;47.042;8.292;2022-10-29T09:41:23;9.73;;;4.60;;
45420;SDS011;55462;47.042;8.292;2022-10-29T09:43:52;11.88;;;4.57;;
45420;SDS011;55462;47.042;8.292;2022-10-29T09:51:52;10.10;;;4.28;;
45420;SDS011;55462;47.042;8.292;2022-10-29T09:54:21;14.48;;;4.30;;
45420;SDS011;55462;47.042;8.292;2022-10-29T09:56:47;12.63;;;4.13;;
45420;SDS011;55462;47.042;8.292;2022-10-29T10:01:50;8.77;;;4.03;;
45420;SDS011;55462;47.042;8.292;2022-10-29T10:04:19;14.60;;;3.47;;
45420;SDS011;55462;47.042;8.292;2022-10-29T10:07:01;10.30;;;4.07;;
45420;SDS011;55462;47.042;8.292;2022-10-29T10:09:27;13.02;;;4.45;;
45420;SDS011;55462;47.042;8.292;2022-10-29T10:11:52;13.05;;;3.58;;
45420;SDS011;55462;47.042;8.292;2022-10-29T10:14:21;11.00;;;3.58;;
45420;SDS011;55462;47.042;8.292;2022-10-29T10:16:58;10.18;;;4.25;;
45420;SDS011;55462;47.042;8.292;2022-10-29T10:19:26;12.70;;;4.93;;
45420;SDS011;55462;47.042;8.292;2022-10-29T10:24:30;13.88;;;5.80;;
45420;SDS011;55462;47.042;8.292;2022-10-29T10:26:57;12.82;;;5.20;;
45420;SDS011;55462;47.042;8.292;2022-10-29T10:29:23;15.65;;;5.85;;
45420;SDS011;55462;47.042;8.292;2022-10-29T10:32:08;7.95;;;4.22;;
45420;SDS011;55462;47.042;8.292;2022-10-29T10:34:40;15.07;;;5.07;;
45420;SDS011;55462;47.042;8.292;2022-10-29T10:39:40;11.15;;;5.03;;
45420;SDS011;55462;47.042;8.292;2022-10-29T10:42:15;14.23;;;5.45;;
45420;SDS011;55462;47.042;8.292;2022-10-29T10:44:43;11.65;;;5.18;;
45420;SDS011;55462;47.042;8.292;2022-10-29T10:47:11;10.75;;;5.68;;
45420;SDS011;55462;47.042;8.292;2022-10-29T10:49:37;12.63;;;5.28;;
45420;SDS011;55462;47.042;8.292;2022-10-29T10:52:13;12.27;;;5.90;;
45420;SDS011;55462;47.042;8.292;2022-10-29T10:54:59;10.88;;;5.22;;
45420;SDS011;55462;47.042;8.292;2022-10-29T10:58:01;15.88;;;5.47;;
45420;SDS011;55462;47.042;8.292;2022-10-29T11:00:40;12.75;;;6.30;;
45420;SDS011;55462;47.042;8.292;2022-10-29T11:03:29;12.52;;;6.03;;
45420;SDS011;55462;47.042;8.292;2022-10-29T11:06:06;10.38;;;5.35;;
45420;SDS011;55462;47.042;8.292;2022-10-29T11:08:41;13.55;;;6.10;;
45420;SDS011;55462;47.042;8.292;2022-10-29T11:11:11;8.80;;;5.43;;
45420;SDS011;55462;47.042;8.292;2022-10-29T11:13:39;15.43;;;5.25;;
45420;SDS011;55462;47.042;8.292;2022-10-29T11:16:11;11.60;;;5.78;;
45420;SDS011;55462;47.042;8.292;2022-10-29T11:21:54;11.98;;;6.38;;
45420;SDS011;55462;47.042;8.292;2022-10-29T11:24:23;16.33;;;5.63;;
45420;SDS011;55462;47.042;8.292;2022-10-29T11:29:44;13.05;;;5.40;;
45420;SDS011;55462;47.042;8.292;2022-10-29T11:38:14;10.07;;;5.75;;
45420;SDS011;55462;47.042;8.292;2022-10-29T11:40:48;12.00;;;5.60;;
45420;SDS011;55462;47.042;8.292;2022-10-29T11:43:17;15.10;;;5.03;;
45420;SDS011;55462;47.042;8.292;2022-10-29T11:45:47;11.90;;;5.43;;
45420;SDS011;55462;47.042;8.292;2022-10-29T11:51:33;20.67;;;5.35;;
45420;SDS011;55462;47.042;8.292;2022-10-29T12:04:32;18.13;;;5.75;;
45420;SDS011;55462;47.042;8.292;2022-10-29T12:12:24;17.63;;;6.07;;
45420;SDS011;55462;47.042;8.292;2022-10-29T12:17:45;14.57;;;5.75;;
45420;SDS011;55462;47.042;8.292;2022-10-29T12:20:35;11.35;;;4.97;;
45420;SDS011;55462;47.042;8.292;2022-10-29T12:23:02;13.55;;;5.47;;
45420;SDS011;55462;47.042;8.292;2022-10-29T12:28:33;13.45;;;5.13;;
45420;SDS011;55462;47.042;8.292;2022-10-29T12:31:13;18.75;;;6.30;;
45420;SDS011;55462;47.042;8.292;2022-10-29T12:36:31;13.13;;;5.47;;
45420;SDS011;55462;47.042;8.292;2022-10-29T12:39:26;15.07;;;5.68;;
45420;SDS011;55462;47.042;8.292;2022-10-29T12:41:56;19.13;;;5.28;;
45420;SDS011;55462;47.042;8.292;2022-10-29T12:44:25;9.55;;;4.97;;
45420;SDS011;55462;47.042;8.292;2022-10-29T12:47:10;12.18;;;5.13;;
45420;SDS011;55462;47.042;8.292;2022-10-29T12:53:39;12.32;;;5.95;;
45420;SDS011;55462;47.042;8.292;2022-10-29T12:55:49;11.30;;;5.20;;
45420;SDS011;55462;47.042;8.292;2022-10-29T13:14:33;13.95;;;5.05;;
45420;SDS011;55462;47.042;8.292;2022-10-29T13:17:02;11.18;;;5.70;;
45420;SDS011;55462;47.042;8.292;2022-10-29T13:19:36;14.68;;;5.78;;
45420;SDS011;55462;47.042;8.292;2022-10-29T13:22:28;10.20;;;5.88;;
45420;SDS011;55462;47.042;8.292;2022-10-29T13:30:33;17.52;;;5.30;;
45420;SDS011;55462;47.042;8.292;2022-10-29T13:38:16;11.20;;;4.95;;
45420;SDS011;55462;47.042;8.292;2022-10-29T13:43:17;13.98;;;5.75;;
45420;SDS011;55462;47.042;8.292;2022-10-29T13:45:47;11.88;;;5.00;;
45420;SDS011;55462;47.042;8.292;2022-10-29T13:48:18;11.00;;;5.20;;
45420;SDS011;55462;47.042;8.292;2022-10-29T13:50:49;11.93;;;5.28;;
45420;SDS011;55462;47.042;8.292;2022-10-29T13:53:15;9.02;;;5.55;;
45420;SDS011;55462;47.042;8.292;2022-10-29T13:55:45;13.57;;;5.40;;
45420;SDS011;55462;47.042;8.292;2022-10-29T13:58:16;11.90;;;5.22;;
45420;SDS011;55462;47.042;8.292;2022-10-29T14:00:47;14.52;;;5.38;;
45420;SDS011;55462;47.042;8.292;2022-10-29T14:03:20;12.07;;;5.00;;
45420;SDS011;55462;47.042;8.292;2022-10-29T14:06:11;14.90;;;5.30;;
45420;SDS011;55462;47.042;8.292;2022-10-29T14:11:43;18.08;;;6.40;;
45420;SDS011;55462;47.042;8.292;2022-10-29T14:14:23;13.45;;;5.53;;
45420;SDS011;55462;47.042;8.292;2022-10-29T14:17:09;16.88;;;5.28;;
45420;SDS011;55462;47.042;8.292;2022-10-29T14:19:42;14.68;;;6.30;;
45420;SDS011;55462;47.042;8.292;2022-10-29T14:22:19;12.32;;;6.10;;
45420;SDS011;55462;47.042;8.292;2022-10-29T14:24:46;12.60;;;5.85;;
45420;SDS011;55462;47.042;8.292;2022-10-29T14:27:12;11.68;;;5.63;;
45420;SDS011;55462;47.042;8.292;2022-10-29T14:29:40;13.57;;;5.50;;
45420;SDS011;55462;47.042;8.292;2022-10-29T14:32:11;11.15;;;5.88;;
45420;SDS011;55462;47.042;8.292;2022-10-29T14:34:42;12.13;;;5.47;;
45420;SDS011;55462;47.042;8.292;2022-10-29T14:37:29;12.13;;;4.90;;
45420;SDS011;55462;47.042;8.292;2022-10-29T14:39:56;12.15;;;5.40;;
45420;SDS011;55462;47.042;8.292;2022-10-29T14:42:34;8.93;;;5.70;;
45420;SDS011;55462;47.042;8.292;2022-10-29T14:45:02;8.75;;;4.40;;
45420;SDS011;55462;47.042;8.292;2022-10-29T14:47:33;24.58;;;7.63;;
45420;SDS011;55462;47.042;8.292;2022-10-29T14:50:01;18.15;;;6.13;;
45420;SDS011;55462;47.042;8.292;2022-10-29T14:52:29;13.70;;;6.13;;
45420;SDS011;55462;47.042;8.292;2022-10-29T14:54:56;14.20;;;5.45;;
45420;SDS011;55462;47.042;8.292;2022-10-29T14:57:23;13.98;;;5.88;;
45420;SDS011;55462;47.042;8.292;2022-10-29T14:59:54;12.32;;;5.45;;
45420;SDS011;55462;47.042;8.292;2022-10-29T15:02:22;10.02;;;5.60;;
45420;SDS011;55462;47.042;8.292;2022-10-29T15:04:54;9.40;;;5.22;;
45420;SDS011;55462;47.042;8.292;2022-10-29T15:10:42;14.75;;;5.40;;
45420;SDS011;55462;47.042;8.292;2022-10-29T15:12:38;12.32;;;5.90;;
45420;SDS011;55462;47.042;8.292;2022-10-29T15:17:52;12.63;;;4.90;;
45420;SDS011;55462;47.042;8.292;2022-10-29T15:20:31;13.18;;;5.43;;
45420;SDS011;55462;47.042;8.292;2022-10-29T15:22:59;15.20;;;5.60;;
45420;SDS011;55462;47.042;8.292;2022-10-29T15:25:26;11.93;;;5.88;;
45420;SDS011;55462;47.042;8.292;2022-10-29T15:27:54;16.10;;;5.68;;
45420;SDS011;55462;47.042;8.292;2022-10-29T15:30:21;12.30;;;6.30;;
45420;SDS011;55462;47.042;8.292;2022-10-29T15:32:56;11.43;;;5.78;;
45420;SDS011;55462;47.042;8.292;2022-10-29T15:35:22;14.63;;;5.78;;
45420;SDS011;55462;47.042;8.292;2022-10-29T15:37:48;15.40;;;5.63;;
45420;SDS011;55462;47.042;8.292;2022-10-29T15:40:16;12.30;;;5.78;;
45420;SDS011;55462;47.042;8.292;2022-10-29T15:42:45;14.55;;;5.65;;
45420;SDS011;55462;47.042;8.292;2022-10-29T15:47:37;18.77;;;6.32;;
45420;SDS011;55462;47.042;8.292;2022-10-29T15:50:05;14.23;;;5.65;;
45420;SDS011;55462;47.042;8.292;2022-10-29T15:52:46;14.18;;;6.25;;
45420;SDS011;55462;47.042;8.292;2022-10-29T15:55:19;13.90;;;6.97;;
45420;SDS011;55462;47.042;8.292;2022-10-29T15:57:58;15.23;;;7.22;;
45420;SDS011;55462;47.042;8.292;2022-10-29T16:00:28;10.25;;;6.88;;
45420;SDS011;55462;47.042;8.292;2022-10-29T16:02:56;16.52;;;7.53;;
45420;SDS011;55462;47.042;8.292;2022-10-29T16:05:25;13.60;;;8.25;;
45420;SDS011;55462;47.042;8.292;2022-10-29T16:07:50;8.23;;;6.90;;
45420;SDS011;55462;47.042;8.292;2022-10-29T16:10:17;15.38;;;7.45;;
45420;SDS011;55462;47.042;8.292;2022-10-29T16:12:44;19.92;;;7.18;;
45420;SDS011;55462;47.042;8.292;2022-10-29T16:15:13;11.05;;;6.75;;
45420;SDS011;55462;47.042;8.292;2022-10-29T16:17:40;11.65;;;7.28;;
45420;SDS011;55462;47.042;8.292;2022-10-29T16:20:05;11.68;;;6.22;;
45420;SDS011;55462;47.042;8.292;2022-10-29T16:22:31;19.55;;;6.85;;
45420;SDS011;55462;47.042;8.292;2022-10-29T16:24:56;10.60;;;6.53;;
45420;SDS011;55462;47.042;8.292;2022-10-29T16:27:22;14.23;;;6.50;;
45420;SDS011;55462;47.042;8.292;2022-10-29T16:29:47;13.48;;;7.00;;
45420;SDS011;55462;47.042;8.292;2022-10-29T16:32:16;19.05;;;6.20;;
45420;SDS011;55462;47.042;8.292;2022-10-29T16:34:43;14.75;;;6.13;;
45420;SDS011;55462;47.042;8.292;2022-10-29T16:37:12;12.82;;;5.55;;
45420;SDS011;55462;47.042;8.292;2022-10-29T16:39:39;11.55;;;5.93;;
45420;SDS011;55462;47.042;8.292;2022-10-29T16:42:05;18.88;;;6.28;;
45420;SDS011;55462;47.042;8.292;2022-10-29T16:44:31;10.52;;;6.18;;
45420;SDS011;55462;47.042;8.292;2022-10-29T16:46:56;14.07;;;6.18;;
45420;SDS011;55462;47.042;8.292;2022-10-29T16:49:21;10.98;;;6.50;;
45420;SDS011;55462;47.042;8.292;2022-10-29T16:51:47;9.55;;;5.55;;
45420;SDS011;55462;47.042;8.292;2022-10-29T16:54:13;12.55;;;5.85;;
45420;SDS011;55462;47.042;8.292;2022-10-29T16:56:38;14.63;;;5.72;;
45420;SDS011;55462;47.042;8.292;2022-10-29T16:59:04;16.83;;;6.05;;
45420;SDS011;55462;47.042;8.292;2022-10-29T17:01:29;11.55;;;5.70;;
45420;SDS011;55462;47.042;8.292;2022-10-29T17:03:54;19.58;;;7.45;;
45420;SDS011;55462;47.042;8.292;2022-10-29T17:06:19;13.02;;;5.80;;